Time;durP1;ratioP1;P1;durP2;ratioP2;P2;SDS_P1;SDS_P2;PMS_P1;PMS_P2;Temp;Humidity;BMP_temperature;BMP_pressure;BME280_temperature;BME280_humidity;BME280_pressure;Samples;Min_cycle;Max_cycle;Signal;HPM_P1;HPM_P2
2022/09/29 00:02:07;;;;;;;;;15.00;12.67;;;;;18.37;59.76;96985.25;4938151;28;102662;-82
2022/09/29 00:04:35;;;;;;;;;16.00;14.67;;;;;18.36;59.58;96986.34;4946693;28;104012;-82
2022/09/29 00:07:02;;;;;;;;;7.33;6.67;;;;;18.36;59.88;96994.53;4953182;28;102918;-82
2022/09/29 00:09:30;;;;;;;;;12.67;12.00;;;;;18.36;59.82;96995.38;4924085;28;102815;-82
2022/09/29 00:11:59;;;;;;;;;17.67;14.00;;;;;18.35;59.81;96993.72;4946512;28;102549;-83
2022/09/29 00:14:26;;;;;;;;;13.00;11.00;;;;;18.35;59.84;96996.47;4950397;28;105557;-82
2022/09/29 00:16:55;;;;;;;;;17.00;14.33;;;;;18.35;59.66;97004.66;4948860;28;103425;-83
2022/09/29 00:19:22;;;;;;;;;15.00;12.00;;;;;18.34;59.64;96992.09;4952129;28;102194;-83
2022/09/29 00:21:49;;;;;;;;;14.33;14.33;;;;;18.35;59.25;97006.59;4954292;28;102463;-82
2022/09/29 00:24:16;;;;;;;;;17.67;11.33;;;;;18.33;59.27;97017.81;4904124;28;104172;-82
2022/09/29 00:26:45;;;;;;;;;15.67;13.00;;;;;18.32;59.70;97016.22;4945336;28;102310;-82
2022/09/29 00:29:12;;;;;;;;;14.00;12.00;;;;;18.33;59.69;97006.88;4949069;28;102381;-82
2022/09/29 00:31:39;;;;;;;;;15.00;12.33;;;;;18.31;59.39;97014.56;4934924;28;102746;-82
2022/09/29 00:34:06;;;;;;;;;13.33;12.67;;;;;18.32;59.46;97005.25;4932324;28;104403;-83
2022/09/29 00:36:34;;;;;;;;;13.00;12.33;;;;;18.31;59.41;97006.34;4939024;28;102742;-82
2022/09/29 00:39:01;;;;;;;;;15.00;13.00;;;;;18.29;59.27;97012.13;4948439;28;102893;-83
2022/09/29 00:41:30;;;;;;;;;7.33;7.00;;;;;18.30;59.47;97010.19;4946464;28;102504;-82
2022/09/29 00:44:00;;;;;;;;;13.33;12.00;;;;;18.29;59.24;97000.34;4940048;28;104043;-82
2022/09/29 00:46:27;;;;;;;;;13.67;12.67;;;;;18.28;59.35;97010.47;4925616;28;104170;-83
2022/09/29 00:48:55;;;;;;;;;13.33;12.00;;;;;18.28;59.15;97005.00;4927088;28;102214;-83
2022/09/29 00:51:21;;;;;;;;;14.67;12.67;;;;;18.28;59.83;97009.69;4936870;28;102695;-84
2022/09/29 00:53:48;;;;;;;;;17.33;15.00;;;;;18.26;59.81;97011.88;4929867;28;104038;-82
2022/09/29 00:56:15;;;;;;;;;14.33;12.33;;;;;18.26;59.81;97028.28;4936831;28;102558;-82
2022/09/29 00:58:44;;;;;;;;;15.67;13.00;;;;;18.25;59.42;97024.75;4916106;28;102395;-82
2022/09/29 01:01:11;;;;;;;;;11.67;9.67;;;;;18.24;59.54;97031.31;4916798;28;102161;-83
2022/09/29 01:03:41;;;;;;;;;13.67;12.00;;;;;18.25;59.50;97037.59;4902887;28;104061;-82
2022/09/29 01:06:19;;;;;;;;;13.00;10.00;;;;;18.23;59.31;97029.69;4888249;28;102192;-82
2022/09/29 01:09:08;;;;;;;;;16.33;12.00;;;;;18.25;59.39;97034.88;4891743;28;104006;-83
2022/09/29 01:11:57;;;;;;;;;11.33;11.00;;;;;18.24;59.31;97042.25;4930286;28;102643;-83
2022/09/29 01:14:47;;;;;;;;;14.00;13.00;;;;;18.23;59.43;97050.78;4924899;28;108390;-82
2022/09/29 01:17:31;;;;;;;;;13.00;10.33;;;;;18.23;59.32;97048.03;4930973;28;102555;-83
2022/09/29 01:20:25;;;;;;;;;10.00;9.00;;;;;18.23;59.20;97057.06;4929704;28;102622;-83
2022/09/29 01:23:33;;;;;;;;;11.67;10.33;;;;;18.23;59.27;97058.97;4924565;28;102575;-83
2022/09/29 01:26:35;;;;;;;;;15.00;13.67;;;;;18.21;59.71;97059.25;4874571;28;107780;-83
2022/09/29 01:29:43;;;;;;;;;10.00;8.67;;;;;18.20;59.21;97057.63;4852813;28;102297;-83
2022/09/29 01:32:30;;;;;;;;;10.33;9.33;;;;;18.20;59.59;97059.53;4816920;28;103604;-83
2022/09/29 01:35:09;;;;;;;;;12.67;10.67;;;;;18.19;59.29;97055.97;4839028;28;102310;-83
2022/09/29 01:37:54;;;;;;;;;10.33;10.33;;;;;18.18;59.29;97059.84;4890863;28;103478;-82
2022/09/29 01:41:02;;;;;;;;;11.00;10.00;;;;;18.18;59.92;97061.75;4916321;28;103163;-82
2022/09/29 01:43:47;;;;;;;;;13.00;12.33;;;;;18.16;59.26;97059.28;4896136;28;102382;-82
2022/09/29 01:46:25;;;;;;;;;10.67;9.67;;;;;18.15;59.60;97059.56;4932807;28;102905;-82
2022/09/29 01:48:54;;;;;;;;;11.33;10.00;;;;;18.15;59.12;97056.84;4907416;28;109012;-83
2022/09/29 01:51:27;;;;;;;;;10.33;8.67;;;;;18.14;59.80;97057.97;4896882;28;104120;-82
2022/09/29 01:53:55;;;;;;;;;10.33;10.00;;;;;18.14;59.62;97052.50;4906304;28;102237;-83
2022/09/29 01:56:29;;;;;;;;;11.00;10.00;;;;;18.13;59.21;97054.41;4911100;28;102121;-84
2022/09/29 01:59:03;;;;;;;;;11.67;10.33;;;;;18.13;59.23;97048.13;4922038;28;105190;-82
2022/09/29 02:01:33;;;;;;;;;12.00;11.67;;;;;18.13;59.43;97045.38;4927264;28;102413;-82
2022/09/29 02:04:13;;;;;;;;;10.00;7.67;;;;;18.13;59.23;97039.91;4912574;28;102357;-82
2022/09/29 02:06:48;;;;;;;;;6.00;6.00;;;;;18.12;59.51;97049.22;4913813;28;102512;-82
2022/09/29 02:09:22;;;;;;;;;10.00;8.67;;;;;18.11;59.60;97047.56;4938085;28;105033;-82
2022/09/29 02:11:49;;;;;;;;;8.33;7.00;;;;;18.11;59.19;97059.34;4956724;28;101464;-83
2022/09/29 02:14:20;;;;;;;;;12.00;10.00;;;;;18.10;59.67;97054.19;4962424;28;101333;-83
2022/09/29 02:16:49;;;;;;;;;11.33;11.00;;;;;18.09;59.77;97055.28;4941294;28;101777;-83
2022/09/29 02:19:30;;;;;;;;;9.67;9.00;;;;;18.06;59.38;97070.31;4933659;28;108028;-82
2022/09/29 02:21:57;;;;;;;;;11.33;11.00;;;;;18.07;59.30;97068.41;4946306;28;103615;-83
2022/09/29 02:24:24;;;;;;;;;9.33;8.67;;;;;18.06;59.40;97072.22;4950086;28;101748;-82
2022/09/29 02:26:51;;;;;;;;;14.00;12.33;;;;;18.06;59.32;97072.22;4951074;28;105798;-82
2022/09/29 02:29:18;;;;;;;;;11.00;9.00;;;;;18.04;59.02;97069.81;4944350;28;109391;-82
2022/09/29 02:31:46;;;;;;;;;9.00;9.00;;;;;18.03;59.53;97067.34;4915559;28;102228;-82
2022/09/29 02:34:16;;;;;;;;;10.67;10.67;;;;;18.03;59.19;97075.56;4910354;28;104267;-82
2022/09/29 02:37:01;;;;;;;;;11.00;8.33;;;;;18.03;58.94;97073.63;4934013;28;102594;-82
2022/09/29 02:39:34;;;;;;;;;12.00;10.33;;;;;18.04;59.60;97079.94;4936403;28;108646;-82
2022/09/29 02:42:11;;;;;;;;;9.67;8.00;;;;;18.04;59.23;97074.47;4952596;28;102342;-82
2022/09/29 02:45:06;;;;;;;;;10.00;10.00;;;;;18.03;59.09;97067.34;4938402;28;102194;-82
2022/09/29 02:47:59;;;;;;;;;9.67;8.67;;;;;18.02;58.90;97065.72;4936466;28;103012;-82
2022/09/29 02:50:39;;;;;;;;;8.67;8.67;;;;;18.02;59.30;97061.06;4927671;28;108906;-82
2022/09/29 02:53:40;;;;;;;;;12.67;10.67;;;;;18.02;59.94;97057.50;4945504;28;102241;-82
2022/09/29 02:56:10;;;;;;;;;10.33;9.00;;;;;18.02;59.41;97043.81;4924693;28;110430;-82
2022/09/29 02:58:52;;;;;;;;;9.67;9.00;;;;;18.01;59.22;97031.28;4943018;28;102608;-82
2022/09/29 03:01:19;;;;;;;;;10.00;9.33;;;;;18.00;59.49;97032.38;4916380;28;108716;-82
2022/09/29 03:03:46;;;;;;;;;8.00;8.00;;;;;18.00;59.42;97032.38;4927094;28;102432;-82
2022/09/29 03:06:14;;;;;;;;;8.33;7.67;;;;;17.99;59.29;97039.75;4944211;28;102325;-82
2022/09/29 03:08:41;;;;;;;;;10.67;8.67;;;;;17.98;59.67;97046.31;4928775;28;102522;-82
2022/09/29 03:11:08;;;;;;;;;8.33;7.67;;;;;17.98;59.57;97031.84;4936777;28;104003;-82
2022/09/29 03:13:35;;;;;;;;;9.67;9.00;;;;;17.97;59.87;97030.19;4925140;28;102554;-82
2022/09/29 03:16:02;;;;;;;;;11.00;9.33;;;;;17.97;59.57;97041.13;4939430;28;102786;-82
2022/09/29 03:18:30;;;;;;;;;8.67;7.33;;;;;17.98;59.16;97048.25;4933906;28;102747;-82
2022/09/29 03:20:57;;;;;;;;;8.33;8.00;;;;;17.96;58.98;97056.75;4915764;28;104956;-82
2022/09/29 03:23:25;;;;;;;;;10.00;9.33;;;;;17.96;59.60;97050.47;4926451;28;102360;-83
2022/09/29 03:25:54;;;;;;;;;8.00;8.00;;;;;17.97;59.01;97050.16;4934959;28;102719;-82
2022/09/29 03:28:21;;;;;;;;;8.00;7.00;;;;;17.96;59.15;97039.53;4932038;28;102404;-82
2022/09/29 03:30:49;;;;;;;;;9.00;7.67;;;;;17.97;58.94;97054.81;4944213;28;106276;-82
2022/09/29 03:33:17;;;;;;;;;8.00;8.00;;;;;17.96;59.60;97050.47;4933965;28;102395;-82
2022/09/29 03:35:44;;;;;;;;;10.67;9.00;;;;;17.95;59.27;97052.38;4940858;28;102444;-82
2022/09/29 03:38:11;;;;;;;;;8.67;8.00;;;;;17.95;59.07;97065.22;4944719;28;102980;-82
2022/09/29 03:40:38;;;;;;;;;11.67;9.67;;;;;17.95;58.99;97067.97;4929568;28;104285;-82
2022/09/29 03:43:05;;;;;;;;;8.00;7.00;;;;;17.94;59.08;97066.31;4929317;28;102488;-82
2022/09/29 03:45:32;;;;;;;;;8.00;7.00;;;;;17.93;59.22;97061.94;4942068;28;102732;-82
2022/09/29 03:47:59;;;;;;;;;11.67;9.67;;;;;17.92;59.59;97060.34;4950743;28;102540;-82
2022/09/29 03:50:26;;;;;;;;;8.33;7.67;;;;;17.92;59.17;97069.34;4945642;28;104062;-83
2022/09/29 03:52:53;;;;;;;;;9.00;8.33;;;;;17.91;59.60;97073.19;4948023;28;102496;-82
2022/09/29 03:55:20;;;;;;;;;9.00;7.00;;;;;17.90;59.79;97063.34;4947585;28;102169;-82
2022/09/29 03:57:48;;;;;;;;;10.00;8.67;;;;;17.90;59.65;97060.63;4942048;28;102207;-82
2022/09/29 04:00:16;;;;;;;;;7.67;7.00;;;;;17.90;59.21;97062.53;4951036;28;103599;-82
2022/09/29 04:02:43;;;;;;;;;8.00;8.00;;;;;17.90;59.31;97057.06;4950001;28;102256;-82
2022/09/29 04:05:10;;;;;;;;;4.33;4.33;;;;;17.89;59.50;97055.41;4948888;28;102696;-82
2022/09/29 04:07:37;;;;;;;;;8.67;6.33;;;;;17.88;59.21;97060.06;4943019;28;102560;-82
2022/09/29 04:10:04;;;;;;;;;7.00;6.33;;;;;17.90;58.69;97068.00;4936448;28;104511;-82
2022/09/29 04:12:31;;;;;;;;;8.67;6.33;;;;;17.89;59.12;97075.38;4951438;28;102487;-83
2022/09/29 04:14:59;;;;;;;;;8.67;8.00;;;;;17.91;59.28;97066.91;4945600;28;102750;-82
2022/09/29 04:17:26;;;;;;;;;9.00;8.33;;;;;17.91;59.37;97072.38;4950262;28;102549;-82
2022/09/29 04:19:53;;;;;;;;;9.00;7.00;;;;;17.90;59.32;97068.81;4894718;28;104066;-82
2022/09/29 04:22:20;;;;;;;;;7.00;7.00;;;;;17.90;58.73;97062.53;4941518;28;102201;-82
2022/09/29 04:24:47;;;;;;;;;8.00;8.00;;;;;17.90;58.68;97059.78;4947564;28;102148;-82
2022/09/29 04:27:15;;;;;;;;;7.67;7.33;;;;;17.89;59.29;97061.72;4913425;28;102308;-82
2022/09/29 04:29:42;;;;;;;;;9.00;7.67;;;;;17.89;59.02;97077.31;4889448;28;104054;-82
2022/09/29 04:32:09;;;;;;;;;8.33;7.33;;;;;17.87;59.41;97079.50;4913159;28;102563;-82
2022/09/29 04:34:36;;;;;;;;;10.33;9.00;;;;;17.88;59.20;97086.63;4944389;28;102498;-82
2022/09/29 04:37:03;;;;;;;;;5.33;5.00;;;;;17.87;59.23;97090.44;4939410;28;102405;-82
2022/09/29 04:39:30;;;;;;;;;9.00;7.00;;;;;17.87;59.51;97090.44;4945985;28;105751;-82
2022/09/29 04:41:57;;;;;;;;;8.00;8.00;;;;;17.87;59.13;97101.41;4978592;28;101783;-83
2022/09/29 04:44:25;;;;;;;;;7.00;7.00;;;;;17.86;59.08;97094.28;4963967;28;102163;-84
2022/09/29 04:46:53;;;;;;;;;9.33;7.67;;;;;17.86;59.13;97091.56;4970115;28;101756;-82
2022/09/29 04:49:21;;;;;;;;;8.33;7.00;;;;;17.87;59.18;97106.88;4979082;28;107845;-82
2022/09/29 04:51:49;;;;;;;;;8.67;8.33;;;;;17.86;58.56;97095.09;4938366;28;101791;-82
2022/09/29 04:54:19;;;;;;;;;8.33;7.67;;;;;17.86;58.48;97100.56;4959341;28;102180;-83
2022/09/29 04:56:50;;;;;;;;;7.67;7.00;;;;;17.87;58.95;97112.34;4940317;28;102352;-83
2022/09/29 04:59:17;;;;;;;;;5.00;5.00;;;;;17.85;58.65;97112.59;4950987;28;103319;-82
2022/09/29 05:01:43;;;;;;;;;8.00;8.00;;;;;17.84;58.60;97108.22;4953907;28;102325;-82
2022/09/29 05:04:12;;;;;;;;;7.00;7.00;;;;;17.85;59.23;97118.06;4917000;28;102705;-82
2022/09/29 05:06:39;;;;;;;;;7.00;6.67;;;;;17.83;59.07;97115.63;4943233;28;102494;-82
2022/09/29 05:09:06;;;;;;;;;9.00;8.00;;;;;17.82;59.05;97115.91;4953651;28;104365;-82
2022/09/29 05:11:33;;;;;;;;;7.67;7.00;;;;;17.82;59.04;97114.00;4956228;28;102332;-83
2022/09/29 05:14:00;;;;;;;;;11.00;8.33;;;;;17.81;59.58;97109.63;4947583;28;102451;-82
2022/09/29 05:16:27;;;;;;;;;8.33;7.00;;;;;17.80;59.60;97115.38;4956832;28;102499;-83
2022/09/29 05:18:54;;;;;;;;;8.00;7.33;;;;;17.80;58.97;97120.84;4941051;28;104152;-84
2022/09/29 05:21:22;;;;;;;;;5.67;5.67;;;;;17.80;59.29;97123.56;4937230;28;102524;-81
2022/09/29 05:23:55;;;;;;;;;6.33;6.33;;;;;17.78;58.72;97121.13;4874034;28;102945;-84
2022/09/29 05:26:22;;;;;;;;;8.67;7.00;;;;;17.79;58.57;97132.88;4934188;28;102103;-82
2022/09/29 05:28:49;;;;;;;;;4.67;3.00;;;;;17.78;58.98;97132.06;4919159;28;103975;-82
2022/09/29 05:31:16;;;;;;;;;5.33;4.00;;;;;17.79;58.88;97130.94;4928502;28;102192;-83
2022/09/29 05:33:43;;;;;;;;;7.00;6.33;;;;;17.79;59.02;97120.03;4925369;28;102655;-82
2022/09/29 05:36:12;;;;;;;;;6.67;6.67;;;;;17.79;58.77;97124.66;4927324;28;102240;-82
2022/09/29 05:38:39;;;;;;;;;6.67;6.67;;;;;17.79;59.21;97122.75;4936249;28;104232;-82
2022/09/29 05:41:09;;;;;;;;;6.00;6.00;;;;;17.79;59.33;97125.47;4925623;28;102872;-82
2022/09/29 05:43:37;;;;;;;;;7.00;6.00;;;;;17.78;59.51;97118.41;4899410;28;102746;-82
2022/09/29 05:46:05;;;;;;;;;8.00;8.00;;;;;17.78;59.23;97118.41;4939267;28;102392;-83
2022/09/29 05:48:32;;;;;;;;;6.00;6.00;;;;;17.77;58.91;97119.50;4924233;28;104182;-83
2022/09/29 05:51:06;;;;;;;;;7.00;7.00;;;;;17.78;59.51;97112.13;4938414;28;102624;-83
2022/09/29 05:53:33;;;;;;;;;7.00;7.00;;;;;17.77;58.88;97107.75;4907040;28;102689;-82
2022/09/29 05:56:24;;;;;;;;;7.33;6.00;;;;;17.76;58.77;97112.38;4941211;28;102875;-83
2022/09/29 05:58:51;;;;;;;;;6.00;5.00;;;;;17.75;58.84;97105.28;4916592;28;104230;-82
2022/09/29 06:01:20;;;;;;;;;8.00;7.67;;;;;17.75;58.69;97104.47;4925550;28;102537;-82
2022/09/29 06:03:47;;;;;;;;;6.00;6.00;;;;;17.75;58.73;97099.81;4942803;28;102215;-82
2022/09/29 06:06:20;;;;;;;;;7.00;6.00;;;;;17.75;59.08;97097.06;4947728;28;102011;-82
2022/09/29 06:08:47;;;;;;;;;6.33;5.67;;;;;17.75;59.04;97099.81;4916998;28;104385;-82
2022/09/29 06:11:19;;;;;;;;;5.67;5.00;;;;;17.75;59.25;97091.63;4927640;28;103065;-83
2022/09/29 06:13:47;;;;;;;;;6.00;5.67;;;;;17.75;58.53;97097.06;4934912;28;102380;-82
2022/09/29 06:16:15;;;;;;;;;5.00;5.00;;;;;17.78;58.79;97098.44;4941486;28;102329;-82
2022/09/29 06:18:42;;;;;;;;;6.67;6.00;;;;;17.78;58.62;97103.91;4909633;28;104116;-82
2022/09/29 06:21:11;;;;;;;;;7.00;6.00;;;;;17.78;58.59;97115.66;4906700;28;102611;-82
2022/09/29 06:23:38;;;;;;;;;6.00;5.00;;;;;17.77;58.81;97114.03;4942492;28;102061;-82
2022/09/29 06:26:07;;;;;;;;;7.00;6.00;;;;;17.77;59.00;97124.97;4933203;28;102734;-80
2022/09/29 06:28:35;;;;;;;;;6.00;5.00;;;;;17.77;58.72;97124.97;4912618;28;103522;-80
2022/09/29 06:31:07;;;;;;;;;2.00;1.67;;;;;17.78;58.66;97128.53;4920163;28;102522;-80
2022/09/29 06:33:35;;;;;;;;;6.00;6.00;;;;;17.75;58.71;97135.34;4936345;28;102673;-80
2022/09/29 06:39:03;;;;;;;;;5.67;5.67;;;;;17.76;58.58;97131.53;4933584;28;108763;-80
2022/09/29 06:41:30;;;;;;;;;5.67;5.67;;;;;17.74;58.66;97128.25;4925907;28;102677;-81
2022/09/29 06:43:58;;;;;;;;;6.33;6.00;;;;;17.74;58.86;97124.72;4932047;28;102357;-82
2022/09/29 06:46:25;;;;;;;;;7.00;5.67;;;;;17.73;59.44;97131.28;4927932;28;102230;-81
2022/09/29 06:48:53;;;;;;;;;6.00;5.00;;;;;17.73;58.57;97134.00;4900555;28;108829;-80
2022/09/29 06:51:21;;;;;;;;;6.00;6.00;;;;;17.72;59.42;97126.91;4922441;28;102500;-81
2022/09/29 06:53:51;;;;;;;;;8.00;8.00;;;;;17.72;58.49;97125.00;4929186;28;102358;-81
2022/09/29 06:56:26;;;;;;;;;5.33;5.33;;;;;17.74;59.07;97125.50;4942247;28;102614;-81
2022/09/29 06:58:53;;;;;;;;;6.00;6.00;;;;;17.75;58.96;97135.34;4924765;28;108839;-81
2022/09/29 07:01:20;;;;;;;;;6.00;6.00;;;;;17.75;59.13;97132.63;4930338;28;103286;-81
2022/09/29 07:03:47;;;;;;;;;5.33;5.33;;;;;17.76;59.17;97137.00;4901015;28;102279;-81
2022/09/29 07:06:14;;;;;;;;;6.00;6.00;;;;;17.75;58.52;97138.09;4932136;28;103013;-81
2022/09/29 07:08:46;;;;;;;;;6.67;5.33;;;;;17.79;58.33;97146.53;4924843;28;104017;-81
2022/09/29 07:11:15;;;;;;;;;7.33;7.00;;;;;17.78;58.77;97156.69;4895867;28;102362;-81
2022/09/29 07:13:42;;;;;;;;;5.00;4.33;;;;;17.79;58.76;97147.34;4932099;28;107630;-80
2022/09/29 07:16:10;;;;;;;;;5.33;4.33;;;;;17.78;58.67;97142.19;4958189;28;102214;-82
2022/09/29 07:18:39;;;;;;;;;8.00;6.00;;;;;17.78;59.13;97151.22;4924169;28;101839;-82
2022/09/29 07:21:10;;;;;;;;;8.00;7.33;;;;;17.77;58.46;97152.31;4933626;28;101821;-82
2022/09/29 07:23:37;;;;;;;;;6.00;6.00;;;;;17.76;59.26;97142.47;4941967;28;102256;-81
2022/09/29 07:26:05;;;;;;;;;7.33;6.00;;;;;17.77;59.09;97146.84;4963479;28;102207;-82
2022/09/29 07:28:32;;;;;;;;;8.33;6.67;;;;;17.76;58.89;97145.19;4940153;28;103264;-82
2022/09/29 07:31:07;;;;;;;;;5.33;5.00;;;;;17.77;58.64;97146.03;4963341;28;102455;-82
2022/09/29 07:33:41;;;;;;;;;6.00;6.00;;;;;17.77;58.62;97152.31;4939244;28;102092;-81
2022/09/29 07:36:08;;;;;;;;;8.00;7.00;;;;;17.78;59.24;97148.47;4918134;28;102473;-82
2022/09/29 07:38:35;;;;;;;;;8.33;6.00;;;;;17.78;58.25;97143.00;4911801;28;104039;-82
2022/09/29 07:41:03;;;;;;;;;5.67;4.33;;;;;17.80;58.84;97146.25;4927955;28;102418;-82
2022/09/29 07:43:34;;;;;;;;;7.00;6.33;;;;;17.81;58.70;97147.91;4894712;28;102177;-81
2022/09/29 07:46:01;;;;;;;;;6.00;6.00;;;;;17.83;58.72;97150.38;4938366;28;102329;-82
2022/09/29 07:48:29;;;;;;;;;7.67;6.67;;;;;17.86;58.44;97162.66;4940000;28;104405;-82
2022/09/29 07:51:14;;;;;;;;;5.00;4.00;;;;;17.86;59.01;97160.72;4927673;28;102160;-83
2022/09/29 07:53:42;;;;;;;;;6.33;6.00;;;;;17.88;58.93;97169.44;4896299;28;103877;-81
2022/09/29 07:56:10;;;;;;;;;6.00;6.00;;;;;17.90;58.71;97171.91;4916865;28;102426;-82
2022/09/29 07:58:38;;;;;;;;;2.00;2.00;;;;;17.90;59.02;97180.94;4920696;28;104233;-82
2022/09/29 08:01:09;;;;;;;;;5.67;5.67;;;;;17.90;58.78;97174.66;4934598;28;102497;-82
2022/09/29 08:03:38;;;;;;;;;5.33;5.00;;;;;17.90;59.24;97171.91;4916362;28;102708;-81
2022/09/29 08:06:08;;;;;;;;;5.00;5.00;;;;;17.90;58.74;97172.75;4941475;28;102212;-82
2022/09/29 08:08:38;;;;;;;;;5.67;5.67;;;;;17.91;58.55;97176.28;4927745;28;104038;-82
2022/09/29 08:11:07;;;;;;;;;5.00;5.00;;;;;17.91;58.52;97179.03;4914870;28;102489;-81
2022/09/29 08:13:37;;;;;;;;;6.00;5.00;;;;;17.91;58.73;97182.59;4917640;28;102207;-81
2022/09/29 08:16:05;;;;;;;;;4.67;4.67;;;;;17.91;59.42;97179.03;4934535;28;102527;-82
2022/09/29 08:18:33;;;;;;;;;5.67;5.00;;;;;17.91;59.10;97187.22;4924878;28;103765;-82
2022/09/29 08:21:00;;;;;;;;;5.00;5.00;;;;;17.91;58.74;97189.97;4881988;28;102304;-83
2022/09/29 08:23:30;;;;;;;;;5.33;5.33;;;;;17.91;59.21;97192.69;4923203;28;102652;-82
2022/09/29 08:26:05;;;;;;;;;6.00;6.00;;;;;17.90;58.68;97191.88;4937024;28;102921;-83
2022/09/29 08:28:33;;;;;;;;;5.00;4.00;;;;;17.91;58.81;97196.25;4893371;28;109915;-82
2022/09/29 08:31:08;;;;;;;;;6.33;6.00;;;;;17.92;58.80;97205.28;4944383;28;102249;-82
2022/09/29 08:33:35;;;;;;;;;5.67;5.67;;;;;17.92;58.55;97199.81;4944073;28;102760;-82
2022/09/29 08:36:04;;;;;;;;;5.67;5.00;;;;;17.91;58.57;97211.84;4942551;28;102478;-82
2022/09/29 08:38:32;;;;;;;;;6.33;5.67;;;;;17.92;59.03;97211.53;4923746;28;104033;-82
2022/09/29 08:41:02;;;;;;;;;5.00;5.00;;;;;17.93;58.73;97209.63;4909438;28;102534;-82
2022/09/29 08:43:37;;;;;;;;;6.00;5.00;;;;;17.92;58.78;97203.34;4910307;28;102077;-82
2022/09/29 08:46:07;;;;;;;;;3.67;3.00;;;;;17.92;59.31;97216.22;4929396;28;102459;-82
2022/09/29 08:48:37;;;;;;;;;4.00;4.00;;;;;17.93;58.99;97226.03;4937013;28;104024;-82
2022/09/29 08:51:42;;;;;;;;;4.33;4.33;;;;;17.92;59.28;97218.97;4908786;28;103408;-82
2022/09/29 08:54:27;;;;;;;;;5.00;5.00;;;;;17.92;58.98;97221.69;4923602;28;102919;-81
2022/09/29 08:57:05;;;;;;;;;8.00;6.67;;;;;17.92;58.71;97222.47;4948465;28;102216;-82
2022/09/29 08:59:32;;;;;;;;;5.00;5.00;;;;;17.91;59.14;97220.03;4887907;28;104091;-82
2022/09/29 09:02:20;;;;;;;;;4.33;4.00;;;;;17.92;58.75;97224.44;4926251;28;102634;-82
2022/09/29 09:05:34;;;;;;;;;4.00;4.00;;;;;17.91;58.82;97228.25;4939571;28;102147;-81
2022/09/29 09:08:02;;;;;;;;;6.00;5.33;;;;;17.93;59.28;97223.31;4916633;28;103209;-82
2022/09/29 09:10:30;;;;;;;;;2.67;2.67;;;;;17.93;59.04;97226.84;4931458;28;104060;-82
2022/09/29 09:13:25;;;;;;;;;4.33;4.00;;;;;17.92;59.01;97225.22;4926705;28;104359;-84
2022/09/29 09:15:55;;;;;;;;;6.67;5.00;;;;;17.93;59.06;97220.56;4916256;28;102328;-81
2022/09/29 09:18:25;;;;;;;;;5.00;4.67;;;;;17.94;59.37;97224.94;4940242;28;102607;-82
2022/09/29 09:21:07;;;;;;;;;4.00;4.00;;;;;17.94;59.01;97230.41;4907735;28;104288;-81
2022/09/29 09:23:40;;;;;;;;;6.00;5.00;;;;;17.94;58.94;97236.72;4942125;28;102465;-82
2022/09/29 09:26:07;;;;;;;;;5.00;4.67;;;;;17.93;59.29;97236.97;4937664;28;102491;-82
2022/09/29 09:28:35;;;;;;;;;5.00;5.00;;;;;17.94;58.69;97241.34;4896966;28;102326;-81
2022/09/29 09:31:09;;;;;;;;;5.00;5.00;;;;;17.94;58.71;97244.09;4904125;28;102958;-82
2022/09/29 09:33:49;;;;;;;;;5.00;5.00;;;;;17.95;59.13;97240.25;4937471;28;102603;-82
2022/09/29 09:36:34;;;;;;;;;5.67;4.00;;;;;17.94;58.48;97253.13;4934020;28;102375;-82
2022/09/29 09:39:05;;;;;;;;;6.00;4.33;;;;;17.95;58.78;97245.72;4929694;28;102752;-82
2022/09/29 09:41:33;;;;;;;;;4.00;4.00;;;;;17.95;58.43;97238.34;4888129;28;104163;-81
2022/09/29 09:44:16;;;;;;;;;5.00;4.67;;;;;17.95;58.95;97240.25;4903542;28;102318;-82
2022/09/29 09:46:48;;;;;;;;;6.00;5.00;;;;;17.95;58.14;97243.00;4928004;28;103300;-81
2022/09/29 09:49:36;;;;;;;;;5.00;5.00;;;;;17.95;58.40;97251.19;4937780;28;102531;-82
2022/09/29 09:52:22;;;;;;;;;5.33;5.00;;;;;17.95;59.37;97260.22;4929872;28;108842;-81
2022/09/29 09:54:52;;;;;;;;;5.00;4.00;;;;;17.95;58.79;97253.94;4916047;28;102899;-81
2022/09/29 09:58:03;;;;;;;;;6.33;5.67;;;;;17.95;58.95;97249.28;4912725;28;102259;-82
2022/09/29 10:00:42;;;;;;;;;5.00;5.00;;;;;17.96;58.76;97261.06;4912689;28;102065;-82
2022/09/29 10:03:11;;;;;;;;;3.33;3.00;;;;;17.96;58.93;97253.66;4955729;28;103295;-82
2022/09/29 10:05:39;;;;;;;;;5.00;4.00;;;;;17.96;58.56;97252.84;4924989;28;104455;-82
2022/09/29 10:08:11;;;;;;;;;6.00;5.00;;;;;17.97;59.02;97254.47;4939424;28;102020;-82
2022/09/29 10:10:39;;;;;;;;;4.67;4.67;;;;;17.97;59.38;97259.94;4937636;28;102052;-82
2022/09/29 10:13:28;;;;;;;;;4.00;4.00;;;;;17.97;58.48;97249.00;4930786;28;108102;-81
2022/09/29 10:16:18;;;;;;;;;3.00;2.33;;;;;17.98;59.09;97258.84;4934510;28;101844;-82
2022/09/29 10:18:47;;;;;;;;;5.00;4.00;;;;;17.98;58.77;97250.63;4950417;28;102051;-81
2022/09/29 10:21:35;;;;;;;;;7.33;5.67;;;;;17.97;58.84;97255.28;4939287;28;102270;-81
2022/09/29 10:24:03;;;;;;;;;4.00;4.00;;;;;17.98;58.48;97251.44;4925685;28;108267;-82
2022/09/29 10:26:40;;;;;;;;;5.00;4.33;;;;;17.98;58.94;97253.38;4925671;28;102744;-82
2022/09/29 10:29:24;;;;;;;;;4.00;4.00;;;;;17.97;59.24;97251.72;4931189;28;102564;-82
2022/09/29 10:32:15;;;;;;;;;5.67;4.00;;;;;17.98;58.46;97261.56;4925158;28;102266;-81
2022/09/29 10:34:45;;;;;;;;;3.33;3.33;;;;;17.97;58.41;97252.53;4946083;28;108637;-81
2022/09/29 10:37:22;;;;;;;;;5.00;4.00;;;;;17.98;58.79;97261.56;4916506;28;102214;-82
2022/09/29 10:39:49;;;;;;;;;4.00;4.00;;;;;17.97;58.92;97254.47;4930148;28;102222;-82
2022/09/29 10:42:28;;;;;;;;;5.00;3.33;;;;;17.97;58.93;97260.75;4934058;28;102391;-81
2022/09/29 10:45:20;;;;;;;;;4.00;4.00;;;;;17.98;58.92;97248.72;4930890;28;109220;-82
2022/09/29 10:47:57;;;;;;;;;5.00;4.67;;;;;17.99;58.59;97255.00;4919572;28;102430;-82
2022/09/29 10:50:31;;;;;;;;;6.33;4.33;;;;;17.99;58.68;97255.00;4929040;28;102367;-81
2022/09/29 10:53:40;;;;;;;;;6.67;5.00;;;;;17.99;59.14;97257.75;4909712;28;102280;-82
2022/09/29 10:56:18;;;;;;;;;4.33;4.00;;;;;17.98;59.15;97264.31;4919879;28;109229;-82
2022/09/29 10:58:57;;;;;;;;;3.33;3.00;;;;;18.00;58.45;97262.13;4906599;28;102232;-82
2022/09/29 11:01:33;;;;;;;;;3.00;2.00;;;;;17.98;59.09;97256.91;4914222;28;102204;-82
2022/09/29 11:04:05;;;;;;;;;4.33;4.33;;;;;17.99;58.58;97265.94;4933801;28;102645;-82
2022/09/29 11:06:36;;;;;;;;;5.00;4.00;;;;;17.98;58.28;97265.13;4906129;28;104067;-82
2022/09/29 11:09:12;;;;;;;;;4.00;3.67;;;;;17.98;58.47;97262.38;4907139;28;104005;-82
2022/09/29 11:12:00;;;;;;;;;6.00;5.00;;;;;17.98;58.62;97267.88;4908989;28;102499;-82
2022/09/29 11:14:35;;;;;;;;;5.00;4.00;;;;;17.99;58.52;97272.25;4934086;28;102565;-82
2022/09/29 11:17:18;;;;;;;;;4.00;3.00;;;;;17.97;59.16;97266.22;4925956;28;103553;-82
2022/09/29 11:19:45;;;;;;;;;3.67;3.00;;;;;17.99;58.40;97268.69;4950291;28;102360;-82
2022/09/29 11:22:24;;;;;;;;;4.00;4.00;;;;;17.98;59.10;97273.34;4933535;28;104695;-82
2022/09/29 11:25:00;;;;;;;;;4.00;4.00;;;;;17.98;58.68;97269.78;4890888;28;102253;-82
2022/09/29 11:27:42;;;;;;;;;3.33;3.33;;;;;17.99;58.49;97271.41;4952706;28;108728;-82
2022/09/29 11:30:14;;;;;;;;;5.00;3.67;;;;;17.99;58.72;97263.22;4878930;28;102395;-82
2022/09/29 11:33:06;;;;;;;;;2.00;2.00;;;;;17.99;59.20;97263.22;4908468;28;102157;-82
2022/09/29 11:36:06;;;;;;;;;4.00;3.00;;;;;17.99;58.76;97263.22;4943902;28;102286;-82
2022/09/29 11:38:57;;;;;;;;;3.67;3.67;;;;;17.98;58.83;97258.84;4935346;28;108939;-82
2022/09/29 11:41:34;;;;;;;;;5.00;3.00;;;;;17.98;58.99;97259.66;4925670;28;102391;-82
2022/09/29 11:44:27;;;;;;;;;3.33;3.00;;;;;17.98;58.85;97256.91;4870773;28;102453;-82
2022/09/29 11:46:57;;;;;;;;;3.33;3.33;;;;;17.99;59.13;97260.47;4932025;28;102141;-82
2022/09/29 11:50:01;;;;;;;;;4.00;4.00;;;;;17.98;58.49;97253.38;4944573;28;109028;-82
2022/09/29 11:52:53;;;;;;;;;4.00;4.00;;;;;17.98;58.84;97254.19;4945113;28;104624;-82